Time;durP1;ratioP1;P1;durP2;ratioP2;P2;SDS_P1;SDS_P2;PMS_P1;PMS_P2;Temp;Humidity;BMP_temperature;BMP_pressure;BME280_temperature;BME280_humidity;BME280_pressure;Samples;Min_cycle;Max_cycle;Signal;HPM_P1;HPM_P2
2022/06/25 00:01:22;;;;;;;1.23;1.13;;;;;;;24.65;41.30;99056.88;4956519;29;20544;-71
2022/06/25 00:03:52;;;;;;;0.60;0.60;;;;;;;24.61;41.75;99074.53;4956310;29;20055;-72
2022/06/25 00:06:21;;;;;;;0.60;0.60;;;;;;;24.55;42.13;99069.72;4956280;29;20085;-73
2022/06/25 00:08:57;;;;;;;0.75;0.75;;;;;;;24.53;42.49;99086.41;4955963;29;20142;-72
2022/06/25 00:14:09;;;;;;;1.15;0.90;;;;;;;24.35;46.19;99108.53;4956152;29;20050;-73
2022/06/25 00:16:39;;;;;;;3.15;1.70;;;;;;;23.94;49.39;99108.56;4956106;29;20047;-73
2022/06/25 00:19:08;;;;;;;0.50;0.50;;;;;;;23.45;53.18;99113.44;4956341;29;20059;-73
2022/06/25 00:21:37;;;;;;;0.55;0.50;;;;;;;23.06;53.95;99114.06;4955875;29;20050;-72
2022/06/25 00:24:07;;;;;;;1.33;0.60;;;;;;;22.70;54.42;99112.84;4938796;29;20050;-72
2022/06/25 00:26:39;;;;;;;;;;;;;;;22.42;55.93;99110.97;4956325;29;20389;-71
2022/06/25 00:29:08;;;;;;;;;;;;;;;22.29;57.53;99121.25;4956830;29;19926;-71
2022/06/25 00:31:47;;;;;;;;;;;;;;;22.04;58.99;99110.59;4939645;29;19962;-72
2022/06/25 00:34:19;;;;;;;;;;;;;;;21.84;61.15;99087.44;4956178;29;19957;-70
2022/06/25 00:36:51;;;;;;;;;;;;;;;21.72;63.16;99111.50;4939083;29;20274;-69
2022/06/25 00:39:30;;;;;;;;;;;;;;;21.50;63.91;99116.22;4956131;29;20013;-70
2022/06/25 00:42:11;;;;;;;;;;;;;;;21.24;64.49;99108.03;4956366;29;20266;-71
2022/06/25 00:44:40;;;;;;;;;;;;;;;21.21;64.87;99108.19;4956052;29;20460;-70
2022/06/25 00:47:12;;;;;;;;;;;;;;;21.12;65.14;99119.06;4956019;29;19922;-69
2022/06/25 00:49:43;;;;;;;;;;;;;;;20.99;64.92;99123.22;4956693;29;19965;-70
2022/06/25 00:52:22;;;;;;;;;;;;;;;20.84;65.19;99136.13;4956639;29;19974;-69
2022/06/25 00:54:52;;;;;;;;;;;;;;;20.94;65.45;99130.38;4953900;28;19922;-69
2022/06/25 00:57:30;;;;;;;;;;;;;;;20.96;66.32;99133.72;4956164;29;19981;-70
2022/06/25 01:00:05;;;;;;;;;;;;;;;21.00;66.55;99129.22;4956230;29;20388;-70
2022/06/25 01:02:35;;;;;;;;;;;;;;;21.08;66.31;99122.75;4955863;29;20369;-69
2022/06/25 01:05:06;;;;;;;;;;;;;;;21.04;67.73;99125.56;4956214;29;20391;-69
2022/06/25 01:07:55;;;;;;;;;;;;;;;21.01;68.47;99105.78;4956109;29;19923;-69
2022/06/25 01:10:23;;;;;;;;;;;;;;;21.02;68.63;99133.41;4915675;29;19961;-69
2022/06/25 01:12:52;;;;;;;;;;;;;;;20.88;69.41;99135.03;4916089;29;19923;-69
2022/06/25 01:15:49;;;;;;;;;;;;;;;20.78;69.89;99124.28;4915563;29;20440;-69
2022/06/25 01:18:21;;;;;;;;;;;;;;;20.84;67.95;99118.81;4900220;29;19922;-69
2022/06/25 01:20:55;;;;;;;;;;;;;;;20.92;67.00;99101.09;4915650;29;19923;-70
2022/06/25 01:23:26;;;;;;;;;;;;;;;21.00;66.08;99087.69;4915574;29;19934;-69
2022/06/25 01:25:54;;;;;;;;;;;;;;;21.07;67.33;99095.09;4915379;29;19927;-69
2022/06/25 01:28:23;;;;;;;;;;;;;;;20.88;69.05;99104.75;4915563;29;20024;-69
2022/06/25 01:30:51;;;;;;;;;;;;;;;20.78;70.35;99107.91;4915765;29;20384;-69
2022/06/25 01:33:29;;;;;;;;;;;;;;;20.68;71.51;99103.16;4915813;29;19923;-70
2022/06/25 01:36:06;;;;;;;;;;;;;;;20.64;72.45;99106.84;4950476;29;19926;-69
2022/06/25 01:38:36;;;;;;;;;;;;;;;20.59;72.99;99097.59;4955885;29;20320;-69
2022/06/25 01:41:15;;;;;;;;;;;;;;;20.53;72.66;99087.56;4956086;29;19922;-69
2022/06/25 01:43:45;;;;;;;;;;;;;;;20.72;72.28;99083.13;4955565;29;19923;-70
2022/06/25 01:46:15;;;;;;;;;;;;;;;20.82;71.26;99084.31;4955383;29;19929;-69
2022/06/25 01:48:44;;;;;;;;;;;;;;;20.89;70.76;99101.25;4954675;29;19923;-70
2022/06/25 01:51:21;;;;;;;;;;;;;;;20.92;69.84;99095.91;4955431;29;20428;-70
2022/06/25 01:53:51;;;;;;;;;;;;;;;20.96;70.29;99092.22;4954647;29;20032;-70
2022/06/25 01:56:20;;;;;;;;;;;;;;;20.85;70.98;99089.31;4955390;29;19934;-70
2022/06/25 01:58:49;;;;;;;;;;;;;;;20.70;72.48;99116.06;4954699;29;20339;-70
2022/06/25 02:01:18;;;;;;;;;;;;;;;20.72;73.39;99124.63;4938266;29;19922;-70
2022/06/25 02:03:48;;;;;;;;;;;;;;;20.79;73.49;99120.78;4954257;29;19953;-69
2022/06/25 02:06:26;;;;;;;;;;;;;;;20.78;73.16;99113.09;4957300;28;19923;-69
2022/06/25 02:09:11;;;;;;;;;;;;;;;20.79;72.84;99110.41;4954261;28;19923;-70
2022/06/25 02:11:48;;;;;;;;;;;;;;;20.84;73.20;99111.03;4938525;29;19964;-69
2022/06/25 02:14:20;;;;;;;;;;;;;;;20.79;72.69;99097.44;4938701;29;19951;-71
2022/06/25 02:16:52;;;;;;;;;;;;;;;20.73;72.28;99102.97;4954587;29;19923;-70
2022/06/25 02:19:21;;;;;;;;;;;;;;;20.73;71.88;99090.81;4939865;29;19926;-70
2022/06/25 02:21:49;;;;;;;;;;;;;;;20.75;72.07;99093.34;4939815;29;20274;-71
2022/06/25 02:24:20;;;;;;;;;;;;;;;20.75;71.50;99093.34;4939954;29;19982;-72
2022/06/25 02:26:49;;;;;;;;;;;;;;;20.76;71.20;99095.00;4938410;29;20021;-71
2022/06/25 02:29:18;;;;;;;;;;;;;;;20.68;70.66;99094.56;4939387;29;19922;-71
2022/06/25 02:31:55;;;;;;;;;;;;;;;20.60;70.44;99089.78;4939533;29;20349;-72
2022/06/25 02:34:33;;;;;;;;;;;;;;;20.64;70.54;99091.28;4939294;29;20006;-73
2022/06/25 02:37:01;;;;;;;;;;;;;;;20.66;70.56;99078.22;4954148;29;19950;-72
2022/06/25 02:39:32;;;;;;;;;;;;;;;20.67;70.74;99090.28;4954234;29;20369;-72
2022/06/25 02:42:05;;;;;;;;;;;;;;;20.72;70.75;99088.31;4937971;29;19923;-72
2022/06/25 02:44:36;;;;;;;;;;;;;;;20.73;71.11;99090.00;4939017;29;19973;-72
2022/06/25 02:47:06;;;;;;;;;;;;;;;20.69;71.25;99098.81;4953841;29;19922;-72
2022/06/25 02:49:57;;;;;;;;;;;;;;;20.63;71.91;99086.19;4939361;29;19954;-72
2022/06/25 02:52:35;;;;;;;;;;;;;;;20.54;71.76;99084.03;4938034;29;20296;-72
2022/06/25 02:55:16;;;;;;;;;;;;;;;20.45;72.52;99094.88;4939219;29;19958;-73
2022/06/25 03:00:36;;;;;;;;;;;;;;;20.47;72.52;99093.03;4954166;29;19945;-72
2022/06/25 03:03:14;;;;;;;;;;;;;;;20.46;72.54;99081.00;4938922;29;20416;-72
2022/06/25 03:05:45;;;;;;;;;;;;;;;20.43;72.19;99087.19;4953496;29;19923;-72
2022/06/25 03:08:15;;;;;;;;;;;;;;;20.45;71.81;99094.88;4953311;29;19927;-73
2022/06/25 03:10:45;;;;;;;;;;;;;;;20.49;71.61;99096.41;4957710;29;19926;-74
2022/06/25 03:13:16;;;;;;;;;;;;;;;20.48;71.83;99092.13;4957970;29;19989;-73
2022/06/25 03:15:45;;;;;;;;;;;;;;;20.53;72.06;99097.94;4956516;29;19926;-73
2022/06/25 03:18:17;;;;;;;;;;;;;;;20.51;72.00;99094.59;4955834;28;20387;-74
2022/06/25 03:20:57;;;;;;;;;;;;;;;20.55;71.97;99096.09;4957834;29;20321;-73
2022/06/25 03:23:29;;;;;;;;;;;;;;;20.53;72.09;99093.59;4957757;29;19962;-73
2022/06/25 03:26:03;;;;;;;;;;;;;;;20.57;72.26;99094.25;4957401;29;19923;-74
2022/06/25 03:28:31;;;;;;;;;;;;;;;20.58;72.35;99095.94;4957683;29;19929;-73
2022/06/25 03:31:00;;;;;;;;;;;;;;;20.55;72.29;99096.09;4956043;29;19977;-73
2022/06/25 03:33:30;;;;;;;;;;;;;;;20.56;72.60;99087.41;4956096;29;19978;-74
2022/06/25 03:36:25;;;;;;;;;;;;;;;20.53;72.84;99087.56;4936565;29;19923;-73
2022/06/25 03:38:55;;;;;;;;;;;;;;;20.53;72.83;99088.41;4955656;29;20021;-72
2022/06/25 03:41:36;;;;;;;;;;;;;;;20.53;73.03;99078.03;4956044;29;19926;-71
2022/06/25 03:44:31;;;;;;;;;;;;;;;20.55;73.18;99077.94;4955117;29;20352;-72
2022/06/25 03:47:10;;;;;;;;;;;;;;;20.54;73.21;99078.84;4955871;29;19930;-72
2022/06/25 03:49:40;;;;;;;;;;;;;;;20.52;73.19;99081.53;4957258;29;19923;-72
2022/06/25 03:52:17;;;;;;;;;;;;;;;20.53;73.23;99082.38;4955913;29;19930;-72
2022/06/25 03:54:46;;;;;;;;;;;;;;;20.57;73.49;99078.69;4955705;29;19978;-72
2022/06/25 03:57:17;;;;;;;;;;;;;;;20.61;73.46;99085.44;4956008;29;19926;-72
2022/06/25 03:59:55;;;;;;;;;;;;;;;20.65;73.17;99085.19;4939821;29;19934;-72
2022/06/25 04:02:26;;;;;;;;;;;;;;;20.64;73.06;99086.09;4955843;29;19930;-72
2022/06/25 04:05:06;;;;;;;;;;;;;;;20.64;73.57;99085.25;4941531;29;19925;-72
2022/06/25 04:07:43;;;;;;;;;;;;;;;20.64;73.49;99090.44;4955404;29;19922;-72
2022/06/25 04:10:13;;;;;;;;;;;;;;;20.70;73.64;99092.72;4956641;29;20349;-71
2022/06/25 04:12:46;;;;;;;;;;;;;;;20.70;73.40;99100.50;4956875;29;19923;-72
2022/06/25 04:15:15;;;;;;;;;;;;;;;20.71;73.47;99108.19;4955365;29;19974;-72
2022/06/25 04:17:46;;;;;;;;;;;;;;;20.75;73.50;99108.06;4956570;29;19973;-72
2022/06/25 04:20:15;;;;;;;;;;;;;;;20.73;73.46;99106.38;4955242;29;19993;-72
2022/06/25 04:22:44;;;;;;;;;;;;;;;20.77;73.44;99101.03;4955265;29;19922;-72
2022/06/25 04:25:23;;;;;;;;;;;;;;;20.78;73.82;99105.31;4955129;29;19929;-72
2022/06/25 04:30:49;;;;;;;;;;;;;;;20.86;73.66;99111.78;4954957;29;19923;-72
2022/06/25 04:33:18;;;;;;;;;;;;;;;20.88;73.55;99103.91;4955206;29;19922;-72
2022/06/25 04:35:57;;;;;;;;;;;;;;;20.88;73.36;99109.94;4955085;29;19965;-72
2022/06/25 04:38:46;;;;;;;;;;;;;;;20.95;73.12;99113.88;4955780;29;19926;-71
2022/06/25 04:41:15;;;;;;;;;;;;;;;20.96;72.84;99112.13;4923286;29;19977;-71
2022/06/25 04:43:46;;;;;;;;;;;;;;;20.93;73.08;99118.31;4954955;29;20403;-71
2022/06/25 04:46:25;;;;;;;;;;;;;;;20.88;72.88;99116.88;4956115;29;19927;-71
2022/06/25 04:48:55;;;;;;;;;;;;;;;20.88;73.31;99120.31;4954940;29;20383;-72
2022/06/25 04:51:25;;;;;;;;;;;;;;;20.85;73.55;99128.25;4938801;29;20021;-71
2022/06/25 04:53:59;;;;;;;;;;;;;;;20.92;73.72;99137.41;4954867;29;20013;-71
2022/06/25 04:56:48;;;;;;;;;;;;;;;20.95;73.67;99132.03;4955697;29;19958;-71
2022/06/25 04:59:18;;;;;;;;;;;;;;;20.97;73.65;99140.59;4955141;29;20042;-71
2022/06/25 05:01:53;;;;;;;;;;;;;;;21.03;73.42;99135.09;4955847;29;19922;-71
2022/06/25 05:04:36;;;;;;;;;;;;;;;21.08;73.28;99148.72;4956054;29;19922;-71
2022/06/25 05:07:08;;;;;;;;;;;;;;;21.12;73.09;99150.22;4954723;29;20013;-71
2022/06/25 05:09:43;;;;;;;;;;;;;;;21.18;72.94;99155.09;4954637;29;19973;-72
2022/06/25 05:13:11;;;;;;;;;;;;;;;21.24;72.53;99154.78;4955083;29;19922;-70
2022/06/25 05:15:13;;;;;;;;;;;;;;;21.29;72.54;99163.16;4954965;29;19922;-70
2022/06/25 05:17:59;;;;;;;;;;;;;;;21.34;72.28;99166.34;4954904;29;20364;-70
2022/06/25 05:20:31;;;;;;;;;;;;;;;21.38;72.16;99167.84;4954917;29;19927;-70
2022/06/25 05:22:59;;;;;;;;;;;;;;;21.45;72.20;99175.34;4955690;29;20336;-70
2022/06/25 05:25:38;;;;;;;;;;;;;;;21.45;72.48;99177.94;4954441;29;20033;-70
2022/06/25 05:28:17;;;;;;;;;;;;;;;21.34;72.85;99181.09;4954827;29;20323;-70
2022/06/25 05:30:48;;;;;;;;;;;;;;;21.35;72.97;99185.38;4955677;29;20292;-70
2022/06/25 05:33:18;;;;;;;;;;;;;;;21.38;73.45;99186.97;4955922;29;19929;-70
2022/06/25 05:35:48;;;;;;;;;;;;;;;21.42;73.57;99193.66;4954802;29;20266;-69
2022/06/25 05:38:16;;;;;;;;;;;;;;;21.55;73.45;99192.09;4955834;29;19962;-70
2022/06/25 05:40:48;;;;;;;;;;;;;;;21.68;73.33;99206.97;4940315;29;20345;-70
2022/06/25 05:43:16;;;;;;;;;;;;;;;21.81;73.34;99201.94;4942423;29;20016;-70
2022/06/25 05:45:45;;;;;;;;;;;;;;;21.96;72.85;99198.53;4942236;29;19972;-70
2022/06/25 05:48:14;;;;;;;;;;;;;;;22.01;72.02;99204.31;4959062;29;19964;-70
2022/06/25 05:50:45;;;;;;;;;;;;;;;21.92;71.48;99200.47;4959158;29;20005;-70
2022/06/25 05:53:16;;;;;;;;;;;;;;;22.06;71.37;99204.91;4959125;29;19956;-70
2022/06/25 05:55:48;;;;;;;;;;;;;;;22.21;70.89;99211.88;4959563;29;20021;-70
2022/06/25 05:58:17;;;;;;;;;;;;;;;22.30;70.42;99211.34;4959336;29;20373;-70
2022/06/25 06:00:46;;;;;;;;;;;;;;;22.39;70.16;99205.63;4958999;29;19973;-70
2022/06/25 06:03:18;;;;;;;;;;;;;;;22.45;70.00;99223.50;4958893;29;19973;-70
2022/06/25 06:05:51;;;;;;;;;;;;;;;22.36;69.68;99226.59;4959599;29;19984;-70
2022/06/25 06:08:20;;;;;;;;;;;;;;;22.40;69.96;99225.53;4958978;29;19974;-71
2022/06/25 06:10:49;;;;;;;;;;;;;;;22.46;70.37;99217.34;4958799;29;19922;-70
2022/06/25 06:13:17;;;;;;;;;;;;;;;22.60;70.72;99220.00;4958732;29;19993;-70
2022/06/25 06:15:46;;;;;;;;;;;;;;;22.73;70.56;99222.78;4958982;29;19928;-70
2022/06/25 06:18:14;;;;;;;;;;;;;;;22.86;70.04;99225.53;4967432;28;19964;-70
2022/06/25 06:20:43;;;;;;;;;;;;;;;22.85;69.56;99226.44;4978078;28;19922;-70
2022/06/25 06:23:14;;;;;;;;;;;;;;;22.84;69.08;99224.78;4978110;28;19966;-71
2022/06/25 06:25:42;;;;;;;;;;;;;;;22.75;68.59;99226.13;4977527;28;19922;-71
2022/06/25 06:28:20;;;;;;;;;;;;;;;22.71;68.49;99231.59;4977445;28;19921;-69
2022/06/25 06:30:49;;;;;;;;;;;;;;;22.77;68.49;99232.09;4977944;28;19948;-70
2022/06/25 06:33:17;;;;;;;;;;;;;;;22.70;68.10;99229.94;4977725;28;20331;-70
2022/06/25 06:35:46;;;;;;;;;;;;;;;22.61;68.23;99239.94;4977622;28;19922;-70
2022/06/25 06:38:16;;;;;;;;;;;;;;;22.57;68.66;99233.22;4977517;28;19922;-70
2022/06/25 06:40:45;;;;;;;;;;;;;;;22.63;69.23;99248.50;4977538;28;19922;-70
2022/06/25 06:43:13;;;;;;;;;;;;;;;22.66;69.69;99248.34;4977548;28;19957;-70
2022/06/25 06:45:42;;;;;;;;;;;;;;;22.67;69.93;99252.59;4977352;28;20012;-70
2022/06/25 06:48:19;;;;;;;;;;;;;;;22.55;70.14;99248.09;4977414;28;20046;-70
2022/06/25 06:50:48;;;;;;;;;;;;;;;22.52;70.37;99240.44;4976629;28;19922;-70
2022/06/25 06:53:22;;;;;;;;;;;;;;;22.66;70.57;99239.69;4976138;28;19922;-70
2022/06/25 06:56:00;;;;;;;;;;;;;;;22.76;70.52;99245.19;4977708;28;19929;-69
2022/06/25 06:58:29;;;;;;;;;;;;;;;22.75;70.12;99243.53;4977337;28;19926;-70
2022/06/25 07:00:58;;;;;;;;;;;;;;;22.74;69.92;99244.44;4977227;28;20376;-70
2022/06/25 07:03:28;;;;;;;;;;;;;;;22.78;69.66;99240.75;4977364;28;19922;-70
2022/06/25 07:05:57;;;;;;;;;;;;;;;22.75;69.52;99238.34;4977015;28;19922;-70
2022/06/25 07:08:27;;;;;;;;;;;;;;;22.75;69.76;99243.53;4976227;28;20013;-70
2022/06/25 07:10:56;;;;;;;;;;;;;;;22.74;69.52;99239.25;4977080;28;19930;-70
2022/06/25 07:13:27;;;;;;;;;;;;;;;22.75;69.62;99244.34;4977607;28;19926;-70
2022/06/25 07:15:56;;;;;;;;;;;;;;;22.79;69.64;99238.06;4976842;28;19921;-70
2022/06/25 07:18:25;;;;;;;;;;;;;;;22.80;69.60;99244.09;4976799;28;19949;-70
2022/06/25 07:20:53;;;;;;;;;;;;;;;22.82;69.65;99244.88;4977002;28;20483;-70
2022/06/25 07:23:22;;;;;;;;;;;;;;;22.85;69.44;99235.09;4977100;28;19962;-70
2022/06/25 07:25:52;;;;;;;;;;;;;;;22.82;69.24;99239.66;4976526;28;19932;-70
2022/06/25 07:28:21;;;;;;;;;;;;;;;22.88;69.34;99247.09;4975798;28;19926;-70
2022/06/25 07:30:50;;;;;;;;;;;;;;;22.73;68.50;99247.97;4976857;28;20287;-70
2022/06/25 07:33:19;;;;;;;;;;;;;;;22.64;67.75;99247.59;4976834;28;20009;-70
2022/06/25 07:35:47;;;;;;;;;;;;;;;22.61;68.73;99252.94;4976599;28;19922;-70
2022/06/25 07:38:24;;;;;;;;;;;;;;;22.66;69.40;99248.34;4976659;28;19928;-70
2022/06/25 07:40:55;;;;;;;;;;;;;;;22.76;69.39;99245.19;4976775;28;19922;-71
2022/06/25 07:43:27;;;;;;;;;;;;;;;22.85;69.31;99257.69;4977029;28;20276;-70
2022/06/25 07:45:56;;;;;;;;;;;;;;;22.86;69.18;99257.59;4976248;28;20312;-70
2022/06/25 07:48:33;;;;;;;;;;;;;;;22.82;69.27;99255.28;4976322;28;19929;-71
2022/06/25 07:53:50;;;;;;;;;;;;;;;22.88;69.39;99266.16;4976257;28;19928;-70
2022/06/25 07:56:20;;;;;;;;;;;;;;;22.85;69.63;99265.50;4976510;28;20057;-70
2022/06/25 07:58:48;;;;;;;;;;;;;;;22.82;69.76;99260.47;4976162;28;19929;-72
2022/06/25 08:01:20;;;;;;;;;;;;;;;22.85;69.55;99270.69;4976393;28;19922;-71
2022/06/25 08:03:48;;;;;;;;;;;;;;;22.77;69.52;99267.72;4975581;28;19926;-69
2022/06/25 08:06:17;;;;;;;;;;;;;;;22.73;69.62;99271.38;4958735;28;19929;-70
2022/06/25 08:08:49;;;;;;;;;;;;;;;22.76;69.69;99268.63;4975679;28;19929;-70
2022/06/25 08:11:17;;;;;;;;;;;;;;;22.78;69.37;99274.56;4976022;28;20047;-72
2022/06/25 08:13:47;;;;;;;;;;;;;;;22.85;69.36;99278.50;4974641;28;20012;-70
2022/06/25 08:16:15;;;;;;;;;;;;;;;22.84;69.42;99274.25;4975790;28;19929;-72
2022/06/25 08:18:44;;;;;;;;;;;;;;;22.80;69.48;99273.56;4975720;28;19922;-70
2022/06/25 08:21:23;;;;;;;;;;;;;;;22.86;69.70;99277.59;4975757;28;19934;-71
2022/06/25 08:24:01;;;;;;;;;;;;;;;22.83;69.76;99282.97;4976242;28;20371;-71
2022/06/25 08:26:33;;;;;;;;;;;;;;;22.95;69.76;99277.06;4975970;28;19922;-70
2022/06/25 08:29:03;;;;;;;;;;;;;;;23.04;69.42;99279.97;4975999;28;20009;-70
2022/06/25 08:31:32;;;;;;;;;;;;;;;23.02;68.84;99283.59;4975655;28;19965;-70
2022/06/25 08:34:06;;;;;;;;;;;;;;;22.99;68.42;99273.34;4975487;28;19926;-70
2022/06/25 08:36:37;;;;;;;;;;;;;;;23.09;68.01;99270.13;4975855;28;20396;-70
2022/06/25 08:39:06;;;;;;;;;;;;;;;23.20;67.35;99275.53;4975387;28;19922;-70
2022/06/25 08:41:34;;;;;;;;;;;;;;;23.33;66.89;99275.66;4975651;28;20303;-70
2022/06/25 08:44:04;;;;;;;;;;;;;;;23.40;66.47;99274.41;4975995;28;19922;-70
2022/06/25 08:46:43;;;;;;;;;;;;;;;23.62;66.61;99279.16;4975316;28;19922;-70
2022/06/25 08:49:12;;;;;;;;;;;;;;;23.67;65.59;99277.97;4975345;28;19952;-70
2022/06/25 08:51:50;;;;;;;;;;;;;;;23.72;64.31;99275.91;4975635;28;19937;-70
2022/06/25 08:54:20;;;;;;;;;;;;;;;23.86;64.25;99278.53;4975272;28;19929;-70
2022/06/25 08:56:49;;;;;;;;;;;;;;;24.02;64.06;99273.19;4975864;28;20369;-70
2022/06/25 08:59:20;;;;;;;;;;;;;;;24.13;62.86;99275.16;4975143;28;19928;-70
2022/06/25 09:01:50;;;;;;;;;;;;;;;24.12;59.27;99279.53;4975156;28;19922;-69
2022/06/25 09:04:18;;;;;;;;;;;;;;;23.95;55.29;99280.56;4975006;28;19929;-70
2022/06/25 09:06:47;;;;;;;;;;;;;;;24.00;55.59;99275.91;4975035;28;19929;-69
2022/06/25 09:09:16;;;;;;;;;;;;;;;24.07;55.66;99283.38;4975049;28;19922;-69
2022/06/25 09:12:07;;;;;;;;;;;;;;;24.15;55.31;99288.94;4975550;28;20387;-69
2022/06/25 09:14:40;;;;;;;;;;;;;;;24.35;55.23;99288.53;4971725;28;19977;-69
2022/06/25 09:17:12;;;;;;;;;;;;;;;24.41;55.02;99295.97;4978898;28;19962;-70
2022/06/25 09:19:42;;;;;;;;;;;;;;;24.28;55.46;99289.88;4979354;28;20287;-69
2022/06/25 09:25:32;;;;;;;;;;;;;;;24.61;56.68;99303.38;4978870;28;19929;-70
2022/06/25 09:28:01;;;;;;;;;;;;;;;24.73;56.74;99302.59;4583894;23;19929;-65
2022/06/25 09:30:35;;;;;;;;;;;;;;;24.68;55.85;99294.22;4960104;29;19922;-65
2022/06/25 09:33:03;;;;;;;;;;;;;;;24.69;55.94;99305.50;4959827;29;19929;-65
2022/06/25 09:35:33;;;;;;;;;;;;;;;24.69;55.79;99295.88;4959462;29;19958;-65
2022/06/25 09:38:02;;;;;;;;;;;;;;;24.69;56.06;99301.09;4959312;29;19928;-65
2022/06/25 09:40:30;;;;;;;;;;;;;;;24.77;55.50;99304.09;4959355;29;19923;-64
2022/06/25 09:43:12;;;;;;;;;;;;;;;24.97;54.81;99301.03;4959228;29;19926;-65
2022/06/25 09:45:43;;;;;;;;;;;;;;;25.33;54.32;99296.91;4959704;29;19973;-64
2022/06/25 09:48:18;;;;;;;;;;;;;;;25.44;54.32;99300.50;4959005;29;19927;-66
2022/06/25 09:51:04;;;;;;;;;;;;;;;25.53;54.14;99299.06;4959598;29;19922;-66
2022/06/25 09:53:34;;;;;;;;;;;;;;;25.36;54.59;99307.16;4959400;29;20368;-65
2022/06/25 09:56:03;;;;;;;;;;;;;;;25.32;54.81;99306.53;4959030;29;19970;-65
2022/06/25 09:58:35;;;;;;;;;;;;;;;25.22;54.76;99308.91;4959017;29;20021;-64
2022/06/25 10:01:16;;;;;;;;;;;;;;;25.11;54.84;99308.78;4959041;29;19929;-64
2022/06/25 10:03:48;;;;;;;;;;;;;;;24.98;55.14;99318.34;4959335;29;20075;-64
2022/06/25 10:06:18;;;;;;;;;;;;;;;24.99;55.42;99307.00;4959347;29;20075;-65
2022/06/25 10:08:48;;;;;;;;;;;;;;;24.88;55.64;99322.53;4958934;29;19922;-65
2022/06/25 10:11:30;;;;;;;;;;;;;;;24.85;56.16;99320.09;4958971;29;19922;-63
2022/06/25 10:13:59;;;;;;;;;;;;;;;24.73;56.15;99315.66;4959069;29;19922;-63
2022/06/25 10:16:30;;;;;;;;;;;;;;;24.55;55.95;99314.19;4959214;29;19922;-64
2022/06/25 10:18:58;;;;;;;;;;;;;;;24.44;56.19;99321.88;4958625;29;19922;-63
2022/06/25 10:21:30;;;;;;;;;;;;;;;24.47;56.20;99317.31;4958802;29;19922;-64
2022/06/25 10:24:03;;;;;;;;;;;;;;;24.56;56.81;99316.72;4958622;29;19930;-65
2022/06/25 10:26:31;;;;;;;;;;;;;;;24.75;57.25;99316.38;4958598;28;19922;-64
2022/06/25 10:29:03;;;;;;;;;;;;;;;24.96;57.44;99315.00;4958713;28;19922;-64
2022/06/25 10:31:34;;;;;;;;;;;;;;;25.17;57.13;99318.00;4958676;29;20291;-65
2022/06/25 10:34:04;;;;;;;;;;;;;;;25.27;56.71;99312.06;4958724;29;19928;-64
2022/06/25 10:36:42;;;;;;;;;;;;;;;25.39;56.73;99309.59;4958670;29;19923;-66
2022/06/25 10:39:29;;;;;;;;;;;;;;;25.49;56.83;99297.56;4958631;29;19945;-65
2022/06/25 10:45:01;;;;;;;;;;;;;;;25.73;56.48;99301.97;4950622;29;19923;-65
2022/06/25 10:47:39;;;;;;;;;;;;;;;25.94;56.32;99292.63;4958222;29;19923;-65
2022/06/25 10:50:19;;;;;;;;;;;;;;;26.11;56.18;99294.09;4958146;29;19929;-64
2022/06/25 10:53:02;;;;;;;;;;;;;;;26.34;56.17;99295.94;4958096;29;19926;-65
2022/06/25 10:58:11;;;;;;;;;;;;;;;26.41;54.64;99291.94;4958489;29;19926;-65
2022/06/25 11:00:47;;;;;;;;;;;;;;;26.24;54.43;99287.06;4958317;29;20040;-65
2022/06/25 11:03:18;;;;;;;;;;;;;;;26.34;55.03;99282.03;4957883;29;19950;-65
2022/06/25 11:05:49;;;;;;;;;;;;;;;26.44;54.38;99281.22;4958335;29;20009;-65
2022/06/25 11:08:18;;;;;;;;;;;;;;;26.44;54.58;99283.84;4957731;29;19928;-65
2022/06/25 11:10:47;;;;;;;;;;;;;;;26.42;54.31;99275.28;4957625;29;19922;-65
2022/06/25 11:13:25;;;;;;;;;;;;;;;26.46;54.25;99276.75;4957666;29;19926;-65
2022/06/25 11:16:13;;;;;;;;;;;;;;;26.61;54.12;99275.63;4958883;29;20020;-65
2022/06/25 11:18:47;;;;;;;;;;;;;;;26.87;53.65;99276.38;4957921;29;20442;-66
2022/06/25 11:21:27;;;;;;;;;;;;;;;26.95;53.66;99278.41;4957633;29;19922;-65
2022/06/25 11:24:05;;;;;;;;;;;;;;;26.97;52.41;99266.06;4957971;29;19924;-65
2022/06/25 11:29:18;;;;;;;;;;;;;;;27.14;52.13;99276.06;4957408;29;19927;-66
2022/06/25 11:31:51;;;;;;;;;;;;;;;26.91;52.53;99269.94;4957445;29;19923;-65
2022/06/25 11:34:22;;;;;;;;;;;;;;;26.95;52.53;99274.00;4957739;29;19946;-66
2022/06/25 11:37:04;;;;;;;;;;;;;;;27.02;52.45;99280.47;4957801;29;20376;-66
2022/06/25 11:39:45;;;;;;;;;;;;;;;26.71;52.81;99285.41;4956533;28;20009;-68
2022/06/25 11:42:17;;;;;;;;;;;;;;;26.60;53.31;99275.75;4957584;29;19922;-68
2022/06/25 11:44:46;;;;;;;;;;;;;;;26.50;53.83;99272.94;4957494;29;19922;-66
2022/06/25 11:47:19;;;;;;;;;;;;;;;26.47;54.25;99278.41;4957289;29;19950;-66
2022/06/25 11:49:50;;;;;;;;;;;;;;;26.38;54.47;99273.00;4957118;29;19928;-65
2022/06/25 11:52:19;;;;;;;;;;;;;;;26.30;54.18;99276.16;4957073;29;19991;-65
2022/06/25 11:54:49;;;;;;;;;;;;;;;26.28;54.82;99271.97;4956995;29;20013;-68
2022/06/25 11:57:18;;;;;;;;;;;;;;;26.30;55.45;99276.16;4956869;29;19922;-68
2022/06/25 11:59:50;;;;;;;;;;;;;;;26.23;55.22;99280.16;4957358;29;19922;-68
2022/06/25 12:02:19;;;;;;;;;;;;;;;26.12;55.75;99271.41;4957153;29;19960;-68
2022/06/25 12:04:51;;;;;;;;;;;;;;;26.02;55.35;99273.78;4957220;29;19922;-65
2022/06/25 12:07:21;;;;;;;;;;;;;;;26.11;55.91;99274.94;4957070;29;19923;-65
2022/06/25 12:09:51;;;;;;;;;;;;;;;26.11;56.10;99264.47;4956981;29;20325;-65
2022/06/25 12:12:21;;;;;;;;;;;;;;;26.15;56.79;99269.41;4956651;29;19923;-65
2022/06/25 12:14:50;;;;;;;;;;;;;;;26.12;55.80;99274.84;4957119;29;20279;-66
2022/06/25 12:17:19;;;;;;;;;;;;;;;26.01;55.07;99261.66;4956797;29;19930;-65
2022/06/25 12:19:48;;;;;;;;;;;;;;;26.05;54.55;99268.34;4956431;29;19922;-65
2022/06/25 12:22:29;;;;;;;;;;;;;;;26.27;54.41;99258.06;4956766;29;20347;-65
2022/06/25 12:25:07;;;;;;;;;;;;;;;26.65;53.36;99257.06;4956708;29;20369;-65
2022/06/25 12:27:44;;;;;;;;;;;;;;;27.12;53.28;99257.03;4956599;28;20279;-68
2022/06/25 12:30:13;;;;;;;;;;;;;;;27.31;52.36;99259.09;4956412;29;19965;-68
2022/06/25 12:32:42;;;;;;;;;;;;;;;27.34;51.48;99254.44;4956959;29;19923;-67
2022/06/25 12:35:19;;;;;;;;;;;;;;;27.44;51.18;99249.38;4956569;29;20289;-67
2022/06/25 12:38:01;;;;;;;;;;;;;;;27.57;51.07;99245.69;4956232;29;19922;-67
2022/06/25 12:40:31;;;;;;;;;;;;;;;27.60;50.44;99240.22;4956259;29;19926;-66
2022/06/25 12:43:01;;;;;;;;;;;;;;;27.70;50.19;99238.53;4956391;29;20365;-67
2022/06/25 12:45:39;;;;;;;;;;;;;;;27.79;50.11;99237.81;4956807;29;19929;-67
2022/06/25 12:48:11;;;;;;;;;;;;;;;27.80;49.79;99236.88;4956561;29;19922;-67
2022/06/25 12:50:48;;;;;;;;;;;;;;;27.87;49.70;99234.59;4956123;28;19922;-67
2022/06/25 12:53:18;;;;;;;;;;;;;;;27.95;49.39;99237.47;4956113;29;19922;-67
2022/06/25 12:55:49;;;;;;;;;;;;;;;28.00;49.04;99234.50;4956256;29;19985;-67
2022/06/25 12:58:18;;;;;;;;;;;;;;;27.85;48.17;99223.38;4956084;29;19922;-67
2022/06/25 13:00:47;;;;;;;;;;;;;;;27.73;48.54;99227.81;4956148;29;19922;-66
2022/06/25 13:03:25;;;;;;;;;;;;;;;27.83;48.78;99227.94;4955901;29;19927;-67
2022/06/25 13:06:03;;;;;;;;;;;;;;;27.79;48.12;99224.69;4956886;29;19977;-66
2022/06/25 13:08:41;;;;;;;;;;;;;;;27.76;48.54;99224.13;4956040;29;20328;-67
2022/06/25 13:11:20;;;;;;;;;;;;;;;27.72;48.61;99220.06;4955870;29;19923;-66
2022/06/25 13:13:52;;;;;;;;;;;;;;;27.70;47.87;99209.69;4956350;29;20352;-67
2022/06/25 13:16:33;;;;;;;;;;;;;;;27.71;48.34;99214.00;4939135;29;19969;-67
2022/06/25 13:19:01;;;;;;;;;;;;;;;27.80;48.38;99213.25;4955886;29;20009;-67
2022/06/25 13:21:39;;;;;;;;;;;;;;;27.89;48.17;99204.66;4956004;29;19929;-66
2022/06/25 13:24:10;;;;;;;;;;;;;;;28.02;48.34;99198.47;4938924;29;20273;-67
2022/06/25 13:26:40;;;;;;;;;;;;;;;27.96;48.56;99196.28;4955669;29;19922;-69
2022/06/25 13:29:09;;;;;;;;;;;;;;;27.80;48.22;99196.69;4955389;28;19922;-67
2022/06/25 13:31:40;;;;;;;;;;;;;;;27.72;48.68;99196.44;4955892;29;19999;-67
2022/06/25 13:34:12;;;;;;;;;;;;;;;27.59;48.44;99188.72;4955692;29;19976;-68
2022/06/25 13:36:40;;;;;;;;;;;;;;;27.52;48.36;99195.38;4955983;29;19926;-67